This is the latest recevied weather packets stored in our database for station/object PY4EI-13. If no packets are shown the sender has not sent any weather packets the latest 10 day(s).
| Time | Temp. | Humidity | Pressure | Rain* | Wind** | Luminosity | Snow |
|---|---|---|---|---|---|---|---|
| 1788066904 | 24.44° C | 57% | 1013.5 hPa | 0 mm | - | - | - |
| 1788066003 | 24.44° C | 56% | 1013.5 hPa | 0 mm | - | - | - |
| 1788065103 | 24.44° C | 56% | 1013.5 hPa | 0 mm | - | - | - |
| 1788058804 | 25° C | 57% | 1013.9 hPa | 0 mm | - | - | - |
| 1788034504 | 27.78° C | 51% | 1010.4 hPa | 0 mm | - | - | - |
| 1788024604 | 28.89° C | 41% | 1009.6 hPa | 0 mm | - | - | - |
| 1788018304 | 27.22° C | 44% | 1011.2 hPa | 0 mm | - | - | - |
| 1788016503 | 26.67° C | 47% | 1012 hPa | 0 mm | - | - | - |
| 1788012012 | 25.56° C | 49% | 1013.7 hPa | 0 mm | - | - | - |
| 1788008404 | 25° C | 50% | 1014.3 hPa | 0 mm | - | - | - |
| 1788007504 | 24.44° C | 50% | 1014.3 hPa | 0 mm | - | - | - |
| 1788006603 | 24.44° C | 50% | 1014.7 hPa | 0 mm | - | - | - |
| 1788003003 | 23.33° C | 53% | 1015 hPa | 0 mm | - | - | - |
| 1788002104 | 23.33° C | 53% | 1015.2 hPa | 0 mm | - | - | - |
| 1788001204 | 22.78° C | 54% | 1015.1 hPa | 0 mm | - | - | - |
| 1788000304 | 22.78° C | 54% | 1015 hPa | 0 mm | - | - | - |
| 1787999403 | 22.78° C | 54% | 1015 hPa | 0 mm | - | - | - |
| 1787998503 | 22.78° C | 54% | 1015 hPa | 0 mm | - | - | - |
| 1787995804 | 22.78° C | 55% | 1014.4 hPa | 0 mm | - | - | - |
| 1787994903 | 22.78° C | 55% | 1014.2 hPa | 0 mm | - | - | - |
| 1787994004 | 22.78° C | 55% | 1013.9 hPa | 0 mm | - | - | - |
| 1787993104 | 22.78° C | 55% | 1013.8 hPa | 0 mm | - | - | - |
| 1787992204 | 22.78° C | 55% | 1013.6 hPa | 0 mm | - | - | - |
| 1787991304 | 22.78° C | 54% | 1013.5 hPa | 0 mm | - | - | - |
| 1787990404 | 22.78° C | 54% | 1013.6 hPa | 0 mm | - | - | - |
* Rain since midnight (hover to see other rain measurements)
** Current wind speed in m/s (hover to see current wind gust speed)